Kanesville, Utah
Current Conditions -  °F | °C
As of 6:53 AM on Saturday 25 Oct 2014 (Local Time) from KOGD Reporting Station
Clear Clear  
Wind Chill: 51°   Ceiling: Unl
Heat Index: 51°   Visibility: 10mi
Dew Point: 28°   Wind: 10mph
Humidity: 41%   Direction: 160°SSE
Pressure: 30.07"   Gusts: NA
Location:  41.1783°N, 112.12°W
Report Text: KOGD 251253Z 16009KT 10SM CLR 11/M02 A3007 RMK AO2 SLP149 T01061022
Loading
Personal Weather Stations






























Interactive Weather Map
Tropical Storm Tracking
New forecast layout! Learn more

10-Day Weather Forecast

Advertisements
Track Severe Weather on mobile